sensor_id;sensor_type;location;lat;lon;timestamp;temperature;humidity
41944;DHT22;27636;52.610;13.244;2023-09-19T00:02:11;17.50;99.90
41944;DHT22;27636;52.610;13.244;2023-09-19T00:07:15;17.50;99.90
41944;DHT22;27636;52.610;13.244;2023-09-19T00:12:21;17.40;99.90
41944;DHT22;27636;52.610;13.244;2023-09-19T00:17:24;17.30;99.90
41944;DHT22;27636;52.610;13.244;2023-09-19T00:22:28;17.30;99.90
41944;DHT22;27636;52.610;13.244;2023-09-19T00:27:33;17.40;99.90
41944;DHT22;27636;52.610;13.244;2023-09-19T00:32:45;17.50;99.90
41944;DHT22;27636;52.610;13.244;2023-09-19T00:37:50;17.50;99.90
41944;DHT22;27636;52.610;13.244;2023-09-19T00:42:57;17.50;99.90
41944;DHT22;27636;52.610;13.244;2023-09-19T00:48:04;17.40;99.90
41944;DHT22;27636;52.610;13.244;2023-09-19T00:53:09;17.30;99.90
41944;DHT22;27636;52.610;13.244;2023-09-19T00:58:18;17.40;99.90
41944;DHT22;27636;52.610;13.244;2023-09-19T01:03:22;17.40;99.90
41944;DHT22;27636;52.610;13.244;2023-09-19T01:08:27;17.30;99.90
41944;DHT22;27636;52.610;13.244;2023-09-19T01:13:49;17.30;99.90
41944;DHT22;27636;52.610;13.244;2023-09-19T01:19:02;17.40;99.90
41944;DHT22;27636;52.610;13.244;2023-09-19T01:24:34;17.50;99.90
41944;DHT22;27636;52.610;13.244;2023-09-19T01:29:48;17.60;99.90
41944;DHT22;27636;52.610;13.244;2023-09-19T01:34:54;17.70;99.90
41944;DHT22;27636;52.610;13.244;2023-09-19T01:40:03;17.60;99.90
41944;DHT22;27636;52.610;13.244;2023-09-19T01:45:13;17.60;99.90
41944;DHT22;27636;52.610;13.244;2023-09-19T01:50:29;17.60;99.90
41944;DHT22;27636;52.610;13.244;2023-09-19T01:55:40;17.20;99.90
41944;DHT22;27636;52.610;13.244;2023-09-19T02:00:48;16.90;99.90
41944;DHT22;27636;52.610;13.244;2023-09-19T02:05:56;16.60;99.90
41944;DHT22;27636;52.610;13.244;2023-09-19T02:11:00;16.60;99.90
41944;DHT22;27636;52.610;13.244;2023-09-19T02:16:05;16.40;99.90
41944;DHT22;27636;52.610;13.244;2023-09-19T02:21:11;16.30;99.90
41944;DHT22;27636;52.610;13.244;2023-09-19T02:26:16;16.30;99.90
41944;DHT22;27636;52.610;13.244;2023-09-19T02:31:19;16.10;99.90
41944;DHT22;27636;52.610;13.244;2023-09-19T02:36:24;16.00;99.90
41944;DHT22;27636;52.610;13.244;2023-09-19T02:41:28;16.10;99.90
41944;DHT22;27636;52.610;13.244;2023-09-19T02:46:33;15.90;99.90
41944;DHT22;27636;52.610;13.244;2023-09-19T02:51:38;15.90;99.90
41944;DHT22;27636;52.610;13.244;2023-09-19T02:56:42;15.80;99.90
41944;DHT22;27636;52.610;13.244;2023-09-19T03:01:45;15.60;99.90
41944;DHT22;27636;52.610;13.244;2023-09-19T03:06:52;15.60;99.90
41944;DHT22;27636;52.610;13.244;2023-09-19T03:12:03;15.50;99.90
41944;DHT22;27636;52.610;13.244;2023-09-19T03:17:09;15.70;99.90
41944;DHT22;27636;52.610;13.244;2023-09-19T03:22:14;15.50;99.90
41944;DHT22;27636;52.610;13.244;2023-09-19T03:27:19;15.50;99.90
41944;DHT22;27636;52.610;13.244;2023-09-19T03:32:24;15.60;99.90
41944;DHT22;27636;52.610;13.244;2023-09-19T03:37:30;15.90;99.90
41944;DHT22;27636;52.610;13.244;2023-09-19T03:42:33;15.80;99.90
41944;DHT22;27636;52.610;13.244;2023-09-19T03:47:40;16.00;99.90
41944;DHT22;27636;52.610;13.244;2023-09-19T03:52:47;15.90;99.90
41944;DHT22;27636;52.610;13.244;2023-09-19T03:57:51;15.90;99.90
41944;DHT22;27636;52.610;13.244;2023-09-19T04:02:56;16.00;99.90
41944;DHT22;27636;52.610;13.244;2023-09-19T04:08:01;16.00;99.90
41944;DHT22;27636;52.610;13.244;2023-09-19T04:13:05;15.90;99.90
41944;DHT22;27636;52.610;13.244;2023-09-19T04:18:11;15.90;99.90
41944;DHT22;27636;52.610;13.244;2023-09-19T04:23:17;15.70;99.90
41944;DHT22;27636;52.610;13.244;2023-09-19T04:28:23;15.60;99.90
41944;DHT22;27636;52.610;13.244;2023-09-19T04:33:27;15.50;99.90
41944;DHT22;27636;52.610;13.244;2023-09-19T04:38:32;15.30;99.90
41944;DHT22;27636;52.610;13.244;2023-09-19T04:43:36;15.60;99.90
41944;DHT22;27636;52.610;13.244;2023-09-19T04:48:41;15.50;99.90
41944;DHT22;27636;52.610;13.244;2023-09-19T04:53:46;15.70;99.90
41944;DHT22;27636;52.610;13.244;2023-09-19T04:58:51;15.70;99.90
41944;DHT22;27636;52.610;13.244;2023-09-19T05:03:54;15.60;99.90
41944;DHT22;27636;52.610;13.244;2023-09-19T05:08:59;15.80;99.90
41944;DHT22;27636;52.610;13.244;2023-09-19T05:14:03;15.60;99.90
41944;DHT22;27636;52.610;13.244;2023-09-19T05:19:07;15.70;99.90
41944;DHT22;27636;52.610;13.244;2023-09-19T05:24:12;15.40;99.90
41944;DHT22;27636;52.610;13.244;2023-09-19T05:29:18;15.30;99.90
41944;DHT22;27636;52.610;13.244;2023-09-19T05:34:21;15.50;99.90
41944;DHT22;27636;52.610;13.244;2023-09-19T05:39:26;15.60;99.90
41944;DHT22;27636;52.610;13.244;2023-09-19T05:44:30;15.90;99.90
41944;DHT22;27636;52.610;13.244;2023-09-19T05:49:35;16.10;99.90
41944;DHT22;27636;52.610;13.244;2023-09-19T05:54:45;15.90;99.90
41944;DHT22;27636;52.610;13.244;2023-09-19T05:59:49;16.10;99.90
41944;DHT22;27636;52.610;13.244;2023-09-19T06:04:54;16.10;99.90
41944;DHT22;27636;52.610;13.244;2023-09-19T06:10:12;16.20;99.90
41944;DHT22;27636;52.610;13.244;2023-09-19T06:15:18;16.60;99.90
41944;DHT22;27636;52.610;13.244;2023-09-19T06:20:24;17.10;99.90
41944;DHT22;27636;52.610;13.244;2023-09-19T06:25:30;17.90;99.90
41944;DHT22;27636;52.610;13.244;2023-09-19T06:30:35;18.30;99.90
41944;DHT22;27636;52.610;13.244;2023-09-19T06:35:40;18.60;99.90
41944;DHT22;27636;52.610;13.244;2023-09-19T06:40:46;19.80;99.90
41944;DHT22;27636;52.610;13.244;2023-09-19T06:45:51;21.00;99.90
41944;DHT22;27636;52.610;13.244;2023-09-19T06:50:56;21.70;99.90
41944;DHT22;27636;52.610;13.244;2023-09-19T06:56:04;23.60;99.90
41944;DHT22;27636;52.610;13.244;2023-09-19T07:01:08;23.20;99.90
41944;DHT22;27636;52.610;13.244;2023-09-19T07:06:12;21.90;99.90
41944;DHT22;27636;52.610;13.244;2023-09-19T07:11:17;21.70;99.90
41944;DHT22;27636;52.610;13.244;2023-09-19T07:16:21;20.90;99.90
41944;DHT22;27636;52.610;13.244;2023-09-19T07:21:33;20.30;99.90
41944;DHT22;27636;52.610;13.244;2023-09-19T07:26:40;19.80;99.90
41944;DHT22;27636;52.610;13.244;2023-09-19T07:31:43;19.80;99.90
41944;DHT22;27636;52.610;13.244;2023-09-19T07:36:48;19.90;99.90
41944;DHT22;27636;52.610;13.244;2023-09-19T07:41:54;19.60;99.90
41944;DHT22;27636;52.610;13.244;2023-09-19T07:46:57;19.40;99.90
41944;DHT22;27636;52.610;13.244;2023-09-19T07:52:02;19.90;99.90
41944;DHT22;27636;52.610;13.244;2023-09-19T07:57:07;21.00;99.90
41944;DHT22;27636;52.610;13.244;2023-09-19T08:02:11;21.60;99.90
41944;DHT22;27636;52.610;13.244;2023-09-19T08:07:20;21.00;99.90
41944;DHT22;27636;52.610;13.244;2023-09-19T08:12:25;20.70;99.90
41944;DHT22;27636;52.610;13.244;2023-09-19T08:17:34;19.80;99.90
41944;DHT22;27636;52.610;13.244;2023-09-19T08:22:38;19.50;99.90
41944;DHT22;27636;52.610;13.244;2023-09-19T08:27:42;19.90;99.90
41944;DHT22;27636;52.610;13.244;2023-09-19T08:32:48;20.20;99.90
41944;DHT22;27636;52.610;13.244;2023-09-19T08:37:52;21.70;99.90
41944;DHT22;27636;52.610;13.244;2023-09-19T08:42:58;24.00;95.30
41944;DHT22;27636;52.610;13.244;2023-09-19T08:48:06;23.70;93.10
41944;DHT22;27636;52.610;13.244;2023-09-19T08:53:15;23.50;92.40
41944;DHT22;27636;52.610;13.244;2023-09-19T08:58:21;22.70;92.90
41944;DHT22;27636;52.610;13.244;2023-09-19T09:03:32;22.90;93.80
41944;DHT22;27636;52.610;13.244;2023-09-19T09:08:37;23.70;90.00
41944;DHT22;27636;52.610;13.244;2023-09-19T09:13:45;23.40;89.60
41944;DHT22;27636;52.610;13.244;2023-09-19T09:18:50;22.50;91.30
41944;DHT22;27636;52.610;13.244;2023-09-19T09:23:58;23.70;90.10
41944;DHT22;27636;52.610;13.244;2023-09-19T09:29:03;23.50;90.00
41944;DHT22;27636;52.610;13.244;2023-09-19T09:34:07;21.70;90.80
41944;DHT22;27636;52.610;13.244;2023-09-19T09:39:10;21.50;92.30
41944;DHT22;27636;52.610;13.244;2023-09-19T09:44:29;21.20;92.20
41944;DHT22;27636;52.610;13.244;2023-09-19T09:49:35;21.70;91.90
41944;DHT22;27636;52.610;13.244;2023-09-19T09:54:58;21.60;92.40
41944;DHT22;27636;52.610;13.244;2023-09-19T10:00:04;21.80;92.50
41944;DHT22;27636;52.610;13.244;2023-09-19T10:05:19;22.40;90.40
41944;DHT22;27636;52.610;13.244;2023-09-19T10:10:32;22.10;91.00
41944;DHT22;27636;52.610;13.244;2023-09-19T10:15:48;21.90;86.70
41944;DHT22;27636;52.610;13.244;2023-09-19T10:20:56;21.90;85.90
41944;DHT22;27636;52.610;13.244;2023-09-19T10:26:01;21.60;88.20
41944;DHT22;27636;52.610;13.244;2023-09-19T10:31:07;22.10;82.70
41944;DHT22;27636;52.610;13.244;2023-09-19T10:36:13;22.30;79.50
41944;DHT22;27636;52.610;13.244;2023-09-19T10:41:19;23.00;79.40
41944;DHT22;27636;52.610;13.244;2023-09-19T10:46:25;23.70;76.60
41944;DHT22;27636;52.610;13.244;2023-09-19T10:51:31;23.30;75.10
41944;DHT22;27636;52.610;13.244;2023-09-19T10:56:37;22.10;78.50
41944;DHT22;27636;52.610;13.244;2023-09-19T11:01:47;22.80;77.20
41944;DHT22;27636;52.610;13.244;2023-09-19T11:07:06;23.60;75.80
41944;DHT22;27636;52.610;13.244;2023-09-19T11:12:47;23.70;73.20
41944;DHT22;27636;52.610;13.244;2023-09-19T11:17:53;22.40;77.30
41944;DHT22;27636;52.610;13.244;2023-09-19T11:23:22;22.60;77.70
41944;DHT22;27636;52.610;13.244;2023-09-19T11:28:29;22.40;77.80
41944;DHT22;27636;52.610;13.244;2023-09-19T11:33:35;22.60;79.00
41944;DHT22;27636;52.610;13.244;2023-09-19T11:39:00;22.50;76.10
41944;DHT22;27636;52.610;13.244;2023-09-19T11:44:33;22.60;73.80
41944;DHT22;27636;52.610;13.244;2023-09-19T11:49:40;22.90;74.30
41944;DHT22;27636;52.610;13.244;2023-09-19T11:54:44;22.60;73.00
41944;DHT22;27636;52.610;13.244;2023-09-19T11:59:51;22.70;72.80
41944;DHT22;27636;52.610;13.244;2023-09-19T12:04:58;22.90;72.50
41944;DHT22;27636;52.610;13.244;2023-09-19T12:10:04;22.90;71.40
41944;DHT22;27636;52.610;13.244;2023-09-19T12:15:09;22.90;71.20
41944;DHT22;27636;52.610;13.244;2023-09-19T12:20:15;22.80;71.70
41944;DHT22;27636;52.610;13.244;2023-09-19T12:25:20;23.00;70.80
41944;DHT22;27636;52.610;13.244;2023-09-19T12:30:28;22.90;72.00
41944;DHT22;27636;52.610;13.244;2023-09-19T12:35:33;23.30;70.00
41944;DHT22;27636;52.610;13.244;2023-09-19T12:40:42;23.30;68.40
41944;DHT22;27636;52.610;13.244;2023-09-19T12:45:46;23.90;69.10
41944;DHT22;27636;52.610;13.244;2023-09-19T12:51:02;23.80;68.40
41944;DHT22;27636;52.610;13.244;2023-09-19T12:56:11;22.90;70.40
41944;DHT22;27636;52.610;13.244;2023-09-19T13:01:18;22.60;70.40
41944;DHT22;27636;52.610;13.244;2023-09-19T13:06:36;22.40;70.60
41944;DHT22;27636;52.610;13.244;2023-09-19T13:11:42;22.30;71.20
41944;DHT22;27636;52.610;13.244;2023-09-19T13:16:58;21.90;72.10
41944;DHT22;27636;52.610;13.244;2023-09-19T13:22:39;22.00;74.60
41944;DHT22;27636;52.610;13.244;2023-09-19T13:27:44;22.00;75.20
41944;DHT22;27636;52.610;13.244;2023-09-19T13:32:48;21.70;73.60
41944;DHT22;27636;52.610;13.244;2023-09-19T13:37:53;21.70;74.60
41944;DHT22;27636;52.610;13.244;2023-09-19T13:42:56;21.70;75.50
41944;DHT22;27636;52.610;13.244;2023-09-19T13:48:00;21.50;75.20
41944;DHT22;27636;52.610;13.244;2023-09-19T13:53:06;21.40;74.90
41944;DHT22;27636;52.610;13.244;2023-09-19T13:58:10;21.80;75.20
41944;DHT22;27636;52.610;13.244;2023-09-19T14:03:15;21.80;74.60
41944;DHT22;27636;52.610;13.244;2023-09-19T14:08:20;22.00;76.50
41944;DHT22;27636;52.610;13.244;2023-09-19T14:13:26;22.00;76.00
41944;DHT22;27636;52.610;13.244;2023-09-19T14:18:30;22.00;76.60
41944;DHT22;27636;52.610;13.244;2023-09-19T14:23:38;21.90;75.60
41944;DHT22;27636;52.610;13.244;2023-09-19T14:28:42;21.90;75.60
41944;DHT22;27636;52.610;13.244;2023-09-19T14:33:53;21.60;74.80
41944;DHT22;27636;52.610;13.244;2023-09-19T14:38:58;21.80;77.00
41944;DHT22;27636;52.610;13.244;2023-09-19T14:44:02;21.80;76.00
41944;DHT22;27636;52.610;13.244;2023-09-19T14:49:06;21.60;76.90
41944;DHT22;27636;52.610;13.244;2023-09-19T14:54:12;21.50;80.00
41944;DHT22;27636;52.610;13.244;2023-09-19T14:59:16;21.50;78.60
41944;DHT22;27636;52.610;13.244;2023-09-19T15:04:20;21.50;78.20
41944;DHT22;27636;52.610;13.244;2023-09-19T15:09:26;21.50;78.20
41944;DHT22;27636;52.610;13.244;2023-09-19T15:14:30;21.40;76.60
41944;DHT22;27636;52.610;13.244;2023-09-19T15:19:34;21.40;79.70
41944;DHT22;27636;52.610;13.244;2023-09-19T15:24:39;21.50;78.40
41944;DHT22;27636;52.610;13.244;2023-09-19T15:29:43;21.60;79.90
41944;DHT22;27636;52.610;13.244;2023-09-19T15:34:48;21.60;78.80
41944;DHT22;27636;52.610;13.244;2023-09-19T15:39:53;21.50;78.70
41944;DHT22;27636;52.610;13.244;2023-09-19T15:44:57;21.20;79.10
41944;DHT22;27636;52.610;13.244;2023-09-19T15:50:00;20.80;82.10
41944;DHT22;27636;52.610;13.244;2023-09-19T15:55:06;20.50;82.80
41944;DHT22;27636;52.610;13.244;2023-09-19T16:00:12;20.40;82.20
41944;DHT22;27636;52.610;13.244;2023-09-19T16:05:20;20.20;83.30
41944;DHT22;27636;52.610;13.244;2023-09-19T16:10:25;20.10;84.30
41944;DHT22;27636;52.610;13.244;2023-09-19T16:15:29;19.80;85.10
41944;DHT22;27636;52.610;13.244;2023-09-19T16:20:33;19.50;86.60
41944;DHT22;27636;52.610;13.244;2023-09-19T16:25:39;19.40;86.50
41944;DHT22;27636;52.610;13.244;2023-09-19T16:30:43;19.20;87.90
41944;DHT22;27636;52.610;13.244;2023-09-19T16:35:47;19.00;86.90
41944;DHT22;27636;52.610;13.244;2023-09-19T16:40:53;18.80;86.80
41944;DHT22;27636;52.610;13.244;2023-09-19T16:45:58;18.50;88.60
41944;DHT22;27636;52.610;13.244;2023-09-19T16:51:04;18.10;90.20
41944;DHT22;27636;52.610;13.244;2023-09-19T16:56:11;17.90;91.00
41944;DHT22;27636;52.610;13.244;2023-09-19T17:01:17;17.80;90.20
41944;DHT22;27636;52.610;13.244;2023-09-19T17:06:28;17.70;91.20
41944;DHT22;27636;52.610;13.244;2023-09-19T17:11:33;17.40;91.60
41944;DHT22;27636;52.610;13.244;2023-09-19T17:16:37;17.00;92.90
41944;DHT22;27636;52.610;13.244;2023-09-19T17:21:41;16.50;95.90
41944;DHT22;27636;52.610;13.244;2023-09-19T17:26:47;16.10;97.90
41944;DHT22;27636;52.610;13.244;2023-09-19T17:31:50;15.80;99.90
41944;DHT22;27636;52.610;13.244;2023-09-19T17:36:54;15.60;99.90
41944;DHT22;27636;52.610;13.244;2023-09-19T17:41:59;15.50;99.90
41944;DHT22;27636;52.610;13.244;2023-09-19T17:47:05;15.40;99.90
41944;DHT22;27636;52.610;13.244;2023-09-19T17:52:08;15.40;99.90
41944;DHT22;27636;52.610;13.244;2023-09-19T17:57:16;15.60;99.90
41944;DHT22;27636;52.610;13.244;2023-09-19T18:02:19;15.50;99.90
41944;DHT22;27636;52.610;13.244;2023-09-19T18:07:23;15.50;99.90
41944;DHT22;27636;52.610;13.244;2023-09-19T18:12:29;15.60;99.90
41944;DHT22;27636;52.610;13.244;2023-09-19T18:17:32;15.40;99.90
41944;DHT22;27636;52.610;13.244;2023-09-19T18:22:38;15.30;99.90
41944;DHT22;27636;52.610;13.244;2023-09-19T18:27:42;15.20;99.90
41944;DHT22;27636;52.610;13.244;2023-09-19T18:32:47;15.30;99.90
41944;DHT22;27636;52.610;13.244;2023-09-19T18:37:51;15.50;99.90
41944;DHT22;27636;52.610;13.244;2023-09-19T18:42:57;15.50;99.90
41944;DHT22;27636;52.610;13.244;2023-09-19T18:48:01;15.60;99.90
41944;DHT22;27636;52.610;13.244;2023-09-19T18:53:05;15.70;99.90
41944;DHT22;27636;52.610;13.244;2023-09-19T18:58:09;15.90;99.50
41944;DHT22;27636;52.610;13.244;2023-09-19T19:03:13;16.10;99.10
41944;DHT22;27636;52.610;13.244;2023-09-19T19:08:19;16.30;97.80
41944;DHT22;27636;52.610;13.244;2023-09-19T19:13:24;16.20;98.40
41944;DHT22;27636;52.610;13.244;2023-09-19T19:18:28;16.00;98.90
41944;DHT22;27636;52.610;13.244;2023-09-19T19:23:35;16.30;98.30
41944;DHT22;27636;52.610;13.244;2023-09-19T19:28:40;16.20;98.20
41944;DHT22;27636;52.610;13.244;2023-09-19T19:33:46;16.30;98.60
41944;DHT22;27636;52.610;13.244;2023-09-19T19:38:50;16.10;99.10
41944;DHT22;27636;52.610;13.244;2023-09-19T19:43:57;16.30;98.10
41944;DHT22;27636;52.610;13.244;2023-09-19T19:49:00;16.30;98.10
41944;DHT22;27636;52.610;13.244;2023-09-19T19:54:04;16.30;98.20
41944;DHT22;27636;52.610;13.244;2023-09-19T19:59:09;16.30;98.80
41944;DHT22;27636;52.610;13.244;2023-09-19T20:04:13;16.20;99.20
41944;DHT22;27636;52.610;13.244;2023-09-19T20:09:19;16.10;99.20
41944;DHT22;27636;52.610;13.244;2023-09-19T20:14:26;16.30;98.70
41944;DHT22;27636;52.610;13.244;2023-09-19T20:19:29;16.30;99.30
41944;DHT22;27636;52.610;13.244;2023-09-19T20:24:36;16.10;99.60
41944;DHT22;27636;52.610;13.244;2023-09-19T20:29:41;16.10;99.60
41944;DHT22;27636;52.610;13.244;2023-09-19T20:34:45;16.20;99.30
41944;DHT22;27636;52.610;13.244;2023-09-19T20:39:49;16.30;99.60
41944;DHT22;27636;52.610;13.244;2023-09-19T20:44:54;16.20;99.50
41944;DHT22;27636;52.610;13.244;2023-09-19T20:49:59;16.10;99.70
41944;DHT22;27636;52.610;13.244;2023-09-19T20:55:03;16.10;99.70
41944;DHT22;27636;52.610;13.244;2023-09-19T21:00:09;16.00;99.90
41944;DHT22;27636;52.610;13.244;2023-09-19T21:05:13;16.00;99.90
41944;DHT22;27636;52.610;13.244;2023-09-19T21:10:17;16.00;99.90
41944;DHT22;27636;52.610;13.244;2023-09-19T21:15:21;16.00;99.90
41944;DHT22;27636;52.610;13.244;2023-09-19T21:20:26;15.90;99.90
41944;DHT22;27636;52.610;13.244;2023-09-19T21:25:30;16.10;99.90
41944;DHT22;27636;52.610;13.244;2023-09-19T21:30:37;16.10;99.90
41944;DHT22;27636;52.610;13.244;2023-09-19T21:35:44;15.90;99.90
41944;DHT22;27636;52.610;13.244;2023-09-19T21:40:49;15.80;99.90
41944;DHT22;27636;52.610;13.244;2023-09-19T21:45:56;16.20;99.50
41944;DHT22;27636;52.610;13.244;2023-09-19T21:51:00;16.30;99.30
41944;DHT22;27636;52.610;13.244;2023-09-19T21:56:04;16.40;98.60
41944;DHT22;27636;52.610;13.244;2023-09-19T22:01:12;16.60;98.30
41944;DHT22;27636;52.610;13.244;2023-09-19T22:06:15;16.70;97.70
41944;DHT22;27636;52.610;13.244;2023-09-19T22:11:23;16.90;97.00
41944;DHT22;27636;52.610;13.244;2023-09-19T22:16:28;16.80;97.70
41944;DHT22;27636;52.610;13.244;2023-09-19T22:21:32;16.80;97.80
41944;DHT22;27636;52.610;13.244;2023-09-19T22:26:40;16.50;98.00
41944;DHT22;27636;52.610;13.244;2023-09-19T22:31:47;16.40;98.50
41944;DHT22;27636;52.610;13.244;2023-09-19T22:36:51;16.20;98.40
41944;DHT22;27636;52.610;13.244;2023-09-19T22:41:57;16.30;98.60
41944;DHT22;27636;52.610;13.244;2023-09-19T22:47:15;16.30;98.70
41944;DHT22;27636;52.610;13.244;2023-09-19T22:52:19;16.30;98.70
41944;DHT22;27636;52.610;13.244;2023-09-19T22:57:24;16.40;98.30
41944;DHT22;27636;52.610;13.244;2023-09-19T23:02:31;16.40;98.50
41944;DHT22;27636;52.610;13.244;2023-09-19T23:07:34;16.50;97.70
41944;DHT22;27636;52.610;13.244;2023-09-19T23:12:39;16.60;97.60
41944;DHT22;27636;52.610;13.244;2023-09-19T23:17:46;16.50;97.90
41944;DHT22;27636;52.610;13.244;2023-09-19T23:22:52;16.50;97.70
41944;DHT22;27636;52.610;13.244;2023-09-19T23:27:57;16.50;97.70
41944;DHT22;27636;52.610;13.244;2023-09-19T23:33:07;16.40;98.50
41944;DHT22;27636;52.610;13.244;2023-09-19T23:38:11;16.30;98.00
41944;DHT22;27636;52.610;13.244;2023-09-19T23:43:15;16.20;98.20
41944;DHT22;27636;52.610;13.244;2023-09-19T23:48:22;16.10;98.70
41944;DHT22;27636;52.610;13.244;2023-09-19T23:53:28;16.10;98.80
41944;DHT22;27636;52.610;13.244;2023-09-19T23:58:32;16.00;98.90
